Time;durP1;ratioP1;P1;durP2;ratioP2;P2;SDS_P1;SDS_P2;PMS_P1;PMS_P2;Temp;Humidity;BMP_temperature;BMP_pressure;BME280_temperature;BME280_humidity;BME280_pressure;Samples;Min_cycle;Max_cycle;Signal;HPM_P1;HPM_P2
2023/09/16 00:01:12;;;;;;;2.60;2.00;;;13.70;99.90;;;;;;4949169;28;20038;-81
2023/09/16 00:03:38;;;;;;;4.68;2.95;;;13.80;99.90;;;;;;4950111;28;20019;-81
2023/09/16 00:06:04;;;;;;;3.75;2.70;;;13.70;99.90;;;;;;4963156;28;20486;-81
2023/09/16 00:08:34;;;;;;;3.13;2.03;;;13.60;99.90;;;;;;4933638;28;20261;-81
2023/09/16 00:11:00;;;;;;;4.28;2.85;;;13.60;99.90;;;;;;4963147;28;20129;-80
2023/09/16 00:13:26;;;;;;;5.00;3.33;;;13.70;99.90;;;;;;4950541;28;20377;-81
2023/09/16 00:15:52;;;;;;;4.75;2.63;;;13.70;99.90;;;;;;4950219;28;20035;-80
2023/09/16 00:18:18;;;;;;;4.55;2.22;;;13.70;99.90;;;;;;4943243;28;20031;-80
2023/09/16 00:20:48;;;;;;;4.40;2.65;;;13.70;99.90;;;;;;4956228;28;20023;-81
2023/09/16 00:23:14;;;;;;;4.25;2.22;;;13.80;99.90;;;;;;4946258;28;20084;-81
2023/09/16 00:25:40;;;;;;;3.65;2.58;;;13.80;99.90;;;;;;4946642;28;20042;-81
2023/09/16 00:28:08;;;;;;;4.75;2.72;;;13.80;99.90;;;;;;4950040;28;20080;-81
2023/09/16 00:30:42;;;;;;;4.32;3.22;;;13.70;99.90;;;;;;4950837;28;20482;-83
2023/09/16 00:33:07;;;;;;;3.83;2.78;;;13.70;99.90;;;;;;4946703;28;20042;-82
2023/09/16 00:35:33;;;;;;;4.15;3.22;;;13.70;99.90;;;;;;4950124;28;20034;-81
2023/09/16 00:37:59;;;;;;;3.45;2.22;;;13.70;99.90;;;;;;4959060;28;20027;-81
2023/09/16 00:40:26;;;;;;;4.38;3.30;;;13.70;99.90;;;;;;4960774;28;20522;-80
2023/09/16 00:42:51;;;;;;;5.60;2.10;;;13.70;99.90;;;;;;4947655;28;20133;-81
2023/09/16 00:45:18;;;;;;;3.05;2.60;;;13.60;99.90;;;;;;4956938;28;20362;-81
2023/09/16 00:47:43;;;;;;;4.03;2.65;;;13.60;99.90;;;;;;4961213;28;20038;-81
2023/09/16 00:50:12;;;;;;;4.35;3.00;;;13.50;99.90;;;;;;4960136;28;20042;-81
2023/09/16 00:52:42;;;;;;;3.97;2.22;;;13.50;99.90;;;;;;4957898;28;20578;-80
2023/09/16 00:55:09;;;;;;;4.25;2.88;;;13.50;99.90;;;;;;4962039;28;20050;-81
2023/09/16 00:57:39;;;;;;;3.42;2.58;;;13.40;99.90;;;;;;4947636;28;20034;-82
2023/09/16 01:00:07;;;;;;;3.08;2.40;;;13.50;99.90;;;;;;4949968;28;20043;-81
2023/09/16 01:02:35;;;;;;;3.45;2.63;;;13.40;99.90;;;;;;4929680;28;20368;-80
2023/09/16 01:05:04;;;;;;;3.45;2.85;;;13.40;99.90;;;;;;4964903;28;20491;-80
2023/09/16 01:07:31;;;;;;;3.55;2.63;;;13.40;99.90;;;;;;4950320;28;20039;-82
2023/09/16 01:09:57;;;;;;;3.03;1.98;;;13.40;99.90;;;;;;4960734;28;20487;-81
2023/09/16 01:12:22;;;;;;;3.22;1.98;;;13.30;99.90;;;;;;4946775;28;20038;-81
2023/09/16 01:14:48;;;;;;;2.40;1.67;;;13.30;99.90;;;;;;4964464;28;20042;-81
2023/09/16 01:17:34;;;;;;;2.97;1.77;;;13.30;99.90;;;;;;4947482;28;20038;-80
2023/09/16 01:20:06;;;;;;;3.40;1.70;;;13.30;99.90;;;;;;4959054;28;20042;-81
2023/09/16 01:22:33;;;;;;;3.90;2.15;;;13.30;99.90;;;;;;4931954;28;20035;-82
2023/09/16 01:25:05;;;;;;;3.20;2.15;;;13.20;99.90;;;;;;4961429;28;20099;-82
2023/09/16 01:27:31;;;;;;;4.65;2.47;;;13.20;99.90;;;;;;4949845;28;20393;-82
2023/09/16 01:29:58;;;;;;;2.80;2.38;;;13.10;99.90;;;;;;4948590;28;20475;-83
2023/09/16 01:32:30;;;;;;;3.40;2.35;;;13.10;99.90;;;;;;4945179;28;20027;-82
2023/09/16 01:35:00;;;;;;;2.67;1.98;;;13.20;99.90;;;;;;4944923;28;20047;-83
2023/09/16 01:37:28;;;;;;;2.53;2.10;;;13.10;99.90;;;;;;4953867;28;20519;-83
2023/09/16 01:39:59;;;;;;;4.47;2.85;;;13.10;99.90;;;;;;4949067;28;20395;-83
2023/09/16 01:42:28;;;;;;;3.45;2.80;;;13.10;99.90;;;;;;4961245;28;20066;-83
2023/09/16 01:44:54;;;;;;;3.67;2.87;;;13.10;99.90;;;;;;4962023;28;20049;-83
2023/09/16 01:47:21;;;;;;;3.47;2.75;;;13.10;99.90;;;;;;4946226;28;20397;-84
2023/09/16 01:49:47;;;;;;;3.22;2.78;;;13.10;99.90;;;;;;4962694;28;20023;-83
2023/09/16 01:52:16;;;;;;;2.58;2.15;;;13.10;99.90;;;;;;4945683;28;20039;-82
2023/09/16 01:54:42;;;;;;;4.55;2.45;;;13.10;99.90;;;;;;4955357;28;20034;-82
2023/09/16 01:57:08;;;;;;;3.60;2.83;;;13.10;99.90;;;;;;4960785;28;20031;-82
2023/09/16 01:59:33;;;;;;;4.35;2.22;;;13.10;99.90;;;;;;4948982;28;20028;-82
2023/09/16 02:01:59;;;;;;;4.30;2.67;;;13.10;99.90;;;;;;4943967;28;20035;-83
2023/09/16 02:04:25;;;;;;;3.63;3.10;;;13.00;99.90;;;;;;4961801;28;20502;-83
2023/09/16 02:06:51;;;;;;;4.22;3.05;;;13.00;99.90;;;;;;4944191;28;20488;-83
2023/09/16 02:09:17;;;;;;;4.22;3.33;;;13.00;99.90;;;;;;4957247;28;20029;-82
2023/09/16 02:11:43;;;;;;;3.85;2.90;;;13.00;99.90;;;;;;4958727;28;20475;-83
2023/09/16 02:14:11;;;;;;;3.80;3.42;;;12.90;99.90;;;;;;4945167;28;20054;-81
2023/09/16 02:16:37;;;;;;;3.75;3.35;;;12.80;99.90;;;;;;4955842;28;20045;-83
2023/09/16 02:19:03;;;;;;;4.18;2.40;;;12.80;99.90;;;;;;4941760;28;20302;-82
2023/09/16 02:21:29;;;;;;;3.90;2.80;;;12.80;99.90;;;;;;4949394;28;20037;-82
2023/09/16 02:23:56;;;;;;;3.92;3.35;;;12.80;99.90;;;;;;4955937;28;20027;-83
2023/09/16 02:26:21;;;;;;;4.53;2.80;;;12.80;99.90;;;;;;4949303;28;20033;-83
2023/09/16 02:28:47;;;;;;;3.30;3.00;;;12.80;99.90;;;;;;4944898;28;20030;-83
2023/09/16 02:31:13;;;;;;;3.95;2.63;;;12.80;99.90;;;;;;5030532;28;20026;-83
2023/09/16 02:33:40;;;;;;;3.85;2.53;;;12.80;99.90;;;;;;4961921;28;20386;-83
2023/09/16 02:36:06;;;;;;;3.47;2.42;;;12.70;99.90;;;;;;4956617;28;20038;-83
2023/09/16 02:38:31;;;;;;;3.13;2.50;;;12.70;99.90;;;;;;4941354;28;20077;-81
2023/09/16 02:40:57;;;;;;;2.85;2.28;;;12.70;99.90;;;;;;4946326;28;20499;-83
2023/09/16 02:43:23;;;;;;;3.15;2.30;;;12.70;99.90;;;;;;4946426;28;20510;-81
2023/09/16 02:45:49;;;;;;;4.13;2.53;;;12.60;99.90;;;;;;4956161;28;20126;-83
2023/09/16 02:48:18;;;;;;;3.90;3.20;;;12.70;99.90;;;;;;4954920;28;20039;-84
2023/09/16 02:50:46;;;;;;;2.67;2.17;;;12.60;99.90;;;;;;4932897;28;20080;-84
2023/09/16 02:53:12;;;;;;;3.38;2.63;;;12.60;99.90;;;;;;4943628;28;20031;-82
2023/09/16 02:55:39;;;;;;;3.50;2.78;;;12.60;99.90;;;;;;4944950;28;20552;-84
2023/09/16 02:58:05;;;;;;;4.05;3.17;;;12.50;99.90;;;;;;4943129;28;20035;-83
2023/09/16 03:00:33;;;;;;;3.15;2.30;;;12.50;99.90;;;;;;4936660;28;20495;-82
2023/09/16 03:02:59;;;;;;;2.88;2.33;;;12.50;99.90;;;;;;4948784;28;20073;-83
2023/09/16 03:05:25;;;;;;;3.03;2.10;;;12.50;99.90;;;;;;4947771;28;20023;-83
2023/09/16 03:07:51;;;;;;;3.10;2.53;;;12.60;99.90;;;;;;4946322;28;20030;-83
2023/09/16 03:10:17;;;;;;;3.30;2.50;;;12.60;99.90;;;;;;4956103;28;20092;-83
2023/09/16 03:12:44;;;;;;;4.10;2.55;;;12.60;99.90;;;;;;4959730;28;20062;-83
2023/09/16 03:15:11;;;;;;;3.78;2.78;;;12.50;99.90;;;;;;4961215;28;20043;-83
2023/09/16 03:17:37;;;;;;;3.90;2.33;;;12.40;99.90;;;;;;4946011;28;20543;-83
2023/09/16 03:20:03;;;;;;;4.28;3.03;;;12.40;99.90;;;;;;4945414;28;20042;-82
2023/09/16 03:22:29;;;;;;;3.42;2.67;;;12.40;99.90;;;;;;4955654;28;20027;-83
2023/09/16 03:24:56;;;;;;;3.38;2.25;;;12.40;99.90;;;;;;4958581;28;20034;-83
2023/09/16 03:27:22;;;;;;;3.88;2.67;;;12.40;99.90;;;;;;4955640;28;20027;-83
2023/09/16 03:29:48;;;;;;;3.10;2.75;;;12.40;99.90;;;;;;4944088;28;20089;-83
2023/09/16 03:32:13;;;;;;;3.15;2.85;;;12.40;99.90;;;;;;4947242;28;20088;-82
2023/09/16 03:34:39;;;;;;;3.90;3.10;;;12.40;99.90;;;;;;4945083;28;20461;-83
2023/09/16 03:37:05;;;;;;;3.17;2.88;;;12.40;99.90;;;;;;4945309;28;20023;-84
2023/09/16 03:39:31;;;;;;;4.13;3.35;;;12.40;99.90;;;;;;4963840;28;20507;-83
2023/09/16 03:41:58;;;;;;;4.20;3.13;;;12.40;99.90;;;;;;4957908;28;21145;-83
2023/09/16 03:44:24;;;;;;;3.80;3.05;;;12.30;99.90;;;;;;4947556;28;20035;-83
2023/09/16 03:46:49;;;;;;;3.35;2.40;;;12.30;99.90;;;;;;4964623;28;20565;-82
2023/09/16 03:49:16;;;;;;;2.97;2.28;;;12.40;99.90;;;;;;4963232;28;20065;-83
2023/09/16 03:51:44;;;;;;;2.83;2.28;;;12.40;99.90;;;;;;4930700;28;20471;-84
2023/09/16 03:54:13;;;;;;;3.25;2.60;;;12.40;99.90;;;;;;4945651;28;20820;-84
2023/09/16 03:56:39;;;;;;;3.40;3.08;;;12.40;99.90;;;;;;4932712;28;20399;-83
2023/09/16 03:59:05;;;;;;;4.00;3.47;;;12.40;99.90;;;;;;4950556;28;20387;-83
2023/09/16 04:01:31;;;;;;;4.25;3.05;;;12.30;99.90;;;;;;5032350;28;20023;-83
2023/09/16 04:03:57;;;;;;;3.50;2.53;;;12.30;99.90;;;;;;4947694;28;20398;-83
2023/09/16 04:06:23;;;;;;;3.42;2.63;;;12.30;99.90;;;;;;4947341;28;20020;-83
2023/09/16 04:08:49;;;;;;;3.72;2.88;;;12.30;99.90;;;;;;4963302;28;20114;-82
2023/09/16 04:11:15;;;;;;;4.78;3.50;;;12.30;99.90;;;;;;4963808;28;20448;-83
2023/09/16 04:13:43;;;;;;;3.25;2.53;;;12.30;99.90;;;;;;4951324;28;20035;-83
2023/09/16 04:16:08;;;;;;;2.60;1.88;;;12.30;99.90;;;;;;4947401;28;20394;-83
2023/09/16 04:18:34;;;;;;;3.00;2.65;;;12.30;99.90;;;;;;4942456;28;20046;-84
2023/09/16 04:21:02;;;;;;;3.30;2.60;;;12.20;99.90;;;;;;4962875;28;20031;-83
2023/09/16 04:23:29;;;;;;;3.38;2.50;;;12.20;99.90;;;;;;4942523;28;20474;-83
2023/09/16 04:25:58;;;;;;;4.30;2.97;;;12.20;99.90;;;;;;4961643;28;20759;-83
2023/09/16 04:28:24;;;;;;;3.38;2.90;;;12.20;99.90;;;;;;4951017;28;20042;-82
2023/09/16 04:30:52;;;;;;;4.95;3.75;;;12.20;99.90;;;;;;4951271;28;20023;-83
2023/09/16 04:33:20;;;;;;;4.00;3.20;;;12.20;99.90;;;;;;4942867;28;20071;-82
2023/09/16 04:35:47;;;;;;;3.95;3.25;;;12.20;99.90;;;;;;4963669;28;20034;-83
2023/09/16 04:38:14;;;;;;;3.72;3.20;;;12.20;99.90;;;;;;4960314;28;20026;-84
2023/09/16 04:40:43;;;;;;;3.70;3.13;;;12.20;99.90;;;;;;4958103;28;20022;-82
2023/09/16 04:43:12;;;;;;;4.10;2.88;;;12.20;99.90;;;;;;4955868;28;20394;-83
2023/09/16 04:45:39;;;;;;;3.17;2.65;;;12.20;99.90;;;;;;4961790;28;20483;-83
2023/09/16 04:48:06;;;;;;;3.85;2.70;;;12.20;99.90;;;;;;4957974;28;20075;-82
2023/09/16 04:50:32;;;;;;;4.05;3.47;;;12.20;99.90;;;;;;4955974;28;20459;-82
2023/09/16 04:53:00;;;;;;;3.40;2.90;;;12.10;99.90;;;;;;4949403;28;20034;-83
2023/09/16 04:55:27;;;;;;;2.92;2.63;;;12.10;99.90;;;;;;4947235;28;20039;-82
2023/09/16 04:57:52;;;;;;;3.55;2.70;;;12.10;99.90;;;;;;4944866;28;20033;-82
2023/09/16 05:00:18;;;;;;;3.03;2.40;;;12.10;99.90;;;;;;5033514;28;20098;-83
2023/09/16 05:02:48;;;;;;;3.40;3.05;;;12.10;99.90;;;;;;4930686;28;20051;-83
2023/09/16 05:05:14;;;;;;;3.78;3.35;;;12.10;99.90;;;;;;4961636;28;20031;-83
2023/09/16 05:07:40;;;;;;;3.50;3.20;;;12.10;99.90;;;;;;4944422;28;20270;-83
2023/09/16 05:10:07;;;;;;;3.20;2.83;;;12.10;99.90;;;;;;4929395;28;20030;-83
2023/09/16 05:12:35;;;;;;;2.83;2.20;;;12.10;99.90;;;;;;4946779;28;20114;-83
2023/09/16 05:15:01;;;;;;;3.40;2.80;;;12.00;99.90;;;;;;4949693;28;20058;-83
2023/09/16 05:17:26;;;;;;;4.05;2.75;;;12.00;99.90;;;;;;4955926;28;20450;-83
2023/09/16 05:19:52;;;;;;;3.65;2.97;;;12.00;99.90;;;;;;4961707;28;20030;-82
2023/09/16 05:22:18;;;;;;;3.78;3.03;;;12.00;99.90;;;;;;4959471;28;20121;-82
2023/09/16 05:24:44;;;;;;;4.22;2.35;;;12.10;99.90;;;;;;4946436;28;20058;-83
2023/09/16 05:27:09;;;;;;;3.40;2.80;;;12.00;99.90;;;;;;4929287;28;20503;-83
2023/09/16 05:29:35;;;;;;;3.78;2.97;;;12.10;99.90;;;;;;4947522;28;20160;-83
2023/09/16 05:32:02;;;;;;;3.70;3.30;;;12.20;99.90;;;;;;4956627;28;20340;-83
2023/09/16 05:34:28;;;;;;;4.80;3.58;;;12.20;99.90;;;;;;4958127;28;20088;-82
2023/09/16 05:36:53;;;;;;;4.10;3.33;;;12.20;99.90;;;;;;4944565;28;21979;-83
2023/09/16 05:39:19;;;;;;;4.05;3.28;;;12.20;99.90;;;;;;4955563;28;20498;-83
2023/09/16 05:41:47;;;;;;;3.38;3.00;;;12.20;99.90;;;;;;4955632;28;20160;-82
2023/09/16 05:44:13;;;;;;;4.43;3.63;;;12.20;99.90;;;;;;4962440;28;20031;-82
2023/09/16 05:46:39;;;;;;;4.22;2.95;;;12.30;99.90;;;;;;4960250;28;20355;-83
2023/09/16 05:49:09;;;;;;;6.47;3.22;;;12.30;99.90;;;;;;4961829;28;20035;-83
2023/09/16 05:51:35;;;;;;;7.53;4.72;;;12.40;99.90;;;;;;4944739;28;20023;-82
2023/09/16 05:54:02;;;;;;;4.30;3.60;;;12.40;99.90;;;;;;4959795;28;20035;-83
2023/09/16 05:56:28;;;;;;;5.70;4.32;;;12.50;99.90;;;;;;4961606;28;20513;-83
2023/09/16 05:58:54;;;;;;;5.97;3.85;;;12.60;99.90;;;;;;4940856;28;20034;-82
2023/09/16 06:01:22;;;;;;;6.00;3.75;;;12.60;99.90;;;;;;4947551;28;20031;-82
2023/09/16 06:03:51;;;;;;;4.28;3.65;;;12.70;99.90;;;;;;4947064;28;20022;-83
2023/09/16 06:06:17;;;;;;;4.05;3.25;;;12.80;99.90;;;;;;4943624;28;20031;-83
2023/09/16 06:08:43;;;;;;;4.90;3.08;;;12.90;99.90;;;;;;4937966;28;20034;-85
2023/09/16 06:11:08;;;;;;;5.50;2.92;;;12.90;99.90;;;;;;4960569;28;20394;-82
2023/09/16 06:13:34;;;;;;;3.83;2.58;;;13.00;99.90;;;;;;4962307;28;20059;-83
2023/09/16 06:16:00;;;;;;;7.95;3.60;;;13.10;99.90;;;;;;4961299;28;20529;-83
2023/09/16 06:18:27;;;;;;;5.85;2.78;;;13.20;99.90;;;;;;4942617;28;20030;-82
2023/09/16 06:20:53;;;;;;;4.45;3.65;;;13.20;99.90;;;;;;4953731;28;20030;-83
2023/09/16 06:23:19;;;;;;;3.63;3.28;;;13.30;99.90;;;;;;4960759;28;20054;-83
2023/09/16 06:25:47;;;;;;;4.75;3.70;;;13.40;99.90;;;;;;4953282;28;20035;-83
2023/09/16 06:28:12;;;;;;;7.03;5.32;;;13.50;99.90;;;;;;4941663;28;20027;-82
2023/09/16 06:30:39;;;;;;;6.38;5.03;;;13.60;99.90;;;;;;4960225;28;20069;-82
2023/09/16 06:33:04;;;;;;;7.85;5.75;;;13.70;99.90;;;;;;4959455;28;20032;-82
2023/09/16 06:35:30;;;;;;;5.90;5.30;;;13.90;99.90;;;;;;4936749;28;20548;-83
2023/09/16 06:37:56;;;;;;;4.95;4.40;;;14.10;99.90;;;;;;4956882;28;20085;-83
2023/09/16 06:40:21;;;;;;;7.07;6.38;;;14.30;99.90;;;;;;4934758;28;20536;-83
2023/09/16 06:42:47;;;;;;;8.57;7.60;;;14.40;99.90;;;;;;4943507;28;20049;-83
2023/09/16 06:45:13;;;;;;;7.40;6.47;;;14.40;99.90;;;;;;4962930;28;20118;-83
2023/09/16 06:47:39;;;;;;;6.85;5.55;;;14.50;99.90;;;;;;4956853;28;20418;-83
2023/09/16 06:50:06;;;;;;;7.75;5.47;;;14.60;99.90;;;;;;4962941;28;20027;-82
2023/09/16 06:52:32;;;;;;;5.78;4.90;;;14.60;99.90;;;;;;4956455;28;20031;-82
2023/09/16 06:54:57;;;;;;;7.65;4.90;;;14.60;99.90;;;;;;4961124;28;20130;-83
2023/09/16 06:57:23;;;;;;;6.13;5.45;;;14.70;99.90;;;;;;4951957;28;20027;-83
2023/09/16 06:59:49;;;;;;;6.03;5.07;;;14.90;99.90;;;;;;4945287;28;20507;-83
2023/09/16 07:02:15;;;;;;;7.53;5.38;;;15.00;99.90;;;;;;4961495;28;20534;-83
2023/09/16 07:04:42;;;;;;;5.07;3.83;;;15.10;99.90;;;;;;4947421;28;20118;-83
2023/09/16 07:07:09;;;;;;;5.63;3.78;;;15.30;99.90;;;;;;4947685;28;20052;-82
2023/09/16 07:09:35;;;;;;;5.63;5.10;;;15.40;99.90;;;;;;4954696;28;20032;-83
2023/09/16 07:12:00;;;;;;;5.57;5.00;;;15.60;99.90;;;;;;4932399;28;20031;-83
2023/09/16 07:14:26;;;;;;;6.30;5.35;;;15.80;99.90;;;;;;4965263;28;20014;-82
2023/09/16 07:16:52;;;;;;;4.35;3.95;;;15.90;99.90;;;;;;4960059;28;20511;-83
2023/09/16 07:19:17;;;;;;;4.65;4.15;;;16.00;99.90;;;;;;4959624;28;20023;-83
2023/09/16 07:21:43;;;;;;;5.60;4.95;;;16.00;99.90;;;;;;4962943;28;20042;-84
2023/09/16 07:24:09;;;;;;;3.63;3.28;;;15.90;99.90;;;;;;4964868;28;20019;-83
2023/09/16 07:26:35;;;;;;;4.75;4.28;;;15.90;99.90;;;;;;4960667;28;20467;-83
2023/09/16 07:29:01;;;;;;;4.70;3.63;;;15.90;99.90;;;;;;4958700;28;20023;-82
2023/09/16 07:31:26;;;;;;;7.05;3.78;;;16.00;99.90;;;;;;4931729;28;20059;-82
2023/09/16 07:33:52;;;;;;;4.18;3.08;;;16.10;99.90;;;;;;4955749;28;20054;-82
2023/09/16 07:36:18;;;;;;;4.95;3.70;;;16.30;99.90;;;;;;4949422;28;20047;-83
2023/09/16 07:38:44;;;;;;;3.97;3.63;;;16.60;99.90;;;;;;4960105;28;20031;-82
2023/09/16 07:41:10;;;;;;;5.97;3.67;;;16.90;99.90;;;;;;4947424;28;20546;-82
2023/09/16 07:43:36;;;;;;;4.35;3.05;;;17.20;99.90;;;;;;4962602;28;20050;-81
2023/09/16 07:46:02;;;;;;;6.32;5.72;;;17.40;99.90;;;;;;4965876;28;20031;-82
2023/09/16 07:48:28;;;;;;;6.18;5.22;;;17.50;99.90;;;;;;4948789;28;20031;-82
2023/09/16 07:50:54;;;;;;;5.95;5.35;;;17.70;99.90;;;;;;4960549;28;20045;-82
2023/09/16 07:53:20;;;;;;;5.20;4.57;;;18.00;99.90;;;;;;4947185;28;20045;-82
2023/09/16 07:55:46;;;;;;;4.88;3.70;;;18.40;99.90;;;;;;4946301;28;20063;-82
2023/09/16 07:58:12;;;;;;;4.72;3.80;;;18.30;99.90;;;;;;5034267;28;20427;-83
2023/09/16 08:00:38;;;;;;;5.18;3.35;;;18.60;99.90;;;;;;4947829;28;20494;-83
2023/09/16 08:03:04;;;;;;;4.45;3.30;;;18.80;99.90;;;;;;4945403;28;20030;-82
2023/09/16 08:05:29;;;;;;;4.68;4.28;;;19.10;99.90;;;;;;4955553;28;20039;-83
2023/09/16 08:07:55;;;;;;;3.63;3.33;;;19.30;99.90;;;;;;4950464;28;20031;-83
2023/09/16 08:10:21;;;;;;;3.47;3.17;;;19.40;99.90;;;;;;4947995;28;20037;-83
2023/09/16 08:12:46;;;;;;;3.45;2.97;;;19.70;99.90;;;;;;4962138;28;20027;-83
2023/09/16 08:15:12;;;;;;;4.10;3.72;;;19.80;99.90;;;;;;4949919;28;20450;-83
2023/09/16 08:17:38;;;;;;;3.63;3.28;;;19.90;99.90;;;;;;4959977;28;20060;-82
2023/09/16 08:20:08;;;;;;;4.32;3.88;;;20.00;99.90;;;;;;4946383;28;20031;-84
2023/09/16 08:22:34;;;;;;;4.40;3.35;;;20.00;99.90;;;;;;4948672;28;20475;-84
2023/09/16 08:25:01;;;;;;;3.80;3.40;;;20.20;99.90;;;;;;4947869;28;20042;-85
2023/09/16 08:27:27;;;;;;;3.95;2.65;;;20.50;99.90;;;;;;4967147;28;20459;-83
2023/09/16 08:29:54;;;;;;;3.58;2.45;;;20.60;99.90;;;;;;4950652;28;20069;-83
2023/09/16 08:32:28;;;;;;;3.72;3.25;;;20.60;99.90;;;;;;4949122;28;20114;-88
2023/09/16 08:34:57;;;;;;;4.50;3.03;;;20.50;99.90;;;;;;4945411;28;20282;-86
2023/09/16 08:37:23;;;;;;;3.47;2.28;;;20.40;99.90;;;;;;4963078;28;20042;-85
2023/09/16 08:39:48;;;;;;;3.63;2.67;;;20.80;99.90;;;;;;4950998;28;20125;-87
2023/09/16 08:42:38;;;;;;;3.53;3.15;;;21.00;99.90;;;;;;4945820;28;20602;-84
2023/09/16 08:45:05;;;;;;;;;;;21.40;99.90;;;;;;4961441;28;20046;-90
2023/09/16 08:47:43;;;;;;;2.50;1.80;;;21.50;99.90;;;;;;4961148;28;20012;-81
2023/09/16 08:50:10;;;;;;;3.83;2.55;;;21.70;99.90;;;;;;4963199;28;20081;-86
2023/09/16 08:52:48;;;;;;;2.92;1.98;;;21.60;99.90;;;;;;4938132;28;20551;-87
2023/09/16 08:55:14;;;;;;;3.75;3.00;;;21.80;99.90;;;;;;4962220;28;20039;-85
2023/09/16 08:57:54;;;;;;;3.15;2.53;;;21.80;99.90;;;;;;5033075;28;20024;-85
2023/09/16 09:00:20;;;;;;;3.08;2.72;;;21.70;99.90;;;;;;4946633;28;20114;-84
2023/09/16 09:02:46;;;;;;;2.88;2.00;;;21.70;99.90;;;;;;4962818;28;20104;-84
2023/09/16 09:05:13;;;;;;;3.25;2.35;;;21.90;99.90;;;;;;4942724;28;20039;-83
2023/09/16 09:07:40;;;;;;;2.63;2.10;;;21.80;99.90;;;;;;4947449;28;20475;-83
2023/09/16 09:10:07;;;;;;;3.47;2.55;;;22.00;99.90;;;;;;4945626;28;20034;-84
2023/09/16 09:12:35;;;;;;;3.30;2.05;;;22.20;99.90;;;;;;4946531;28;20053;-83
2023/09/16 09:15:06;;;;;;;3.67;3.00;;;22.40;99.90;;;;;;4961986;28;20047;-85
2023/09/16 09:17:38;;;;;;;3.55;2.80;;;22.40;99.90;;;;;;4962880;28;20458;-85
2023/09/16 09:20:09;;;;;;;2.75;1.98;;;22.40;99.90;;;;;;4961476;28;20479;-84
2023/09/16 09:22:39;;;;;;;3.67;2.13;;;22.40;99.90;;;;;;4948765;28;20459;-84
2023/09/16 09:25:05;;;;;;;4.13;2.60;;;22.60;99.90;;;;;;4945110;28;20495;-83
2023/09/16 09:27:30;;;;;;;3.55;1.58;;;22.60;99.90;;;;;;4943932;28;20031;-84
2023/09/16 09:29:56;;;;;;;2.78;2.35;;;22.70;99.90;;;;;;4962600;28;20419;-83
2023/09/16 09:32:22;;;;;;;2.67;2.00;;;22.60;99.90;;;;;;4955470;28;20364;-84
2023/09/16 09:34:47;;;;;;;2.63;1.55;;;22.70;99.90;;;;;;4953508;28;20031;-83
2023/09/16 09:37:16;;;;;;;3.45;1.73;;;22.90;99.90;;;;;;4949326;28;20031;-84
2023/09/16 09:39:42;;;;;;;2.03;0.95;;;23.00;99.90;;;;;;4960948;28;20217;-84
2023/09/16 09:42:08;;;;;;;2.55;1.00;;;23.20;99.90;;;;;;4956304;28;20058;-83
2023/09/16 09:44:34;;;;;;;2.63;1.05;;;23.30;99.90;;;;;;4961656;28;20023;-82
2023/09/16 09:47:01;;;;;;;3.85;1.48;;;23.30;99.90;;;;;;4957256;28;20027;-84
2023/09/16 09:49:27;;;;;;;2.55;1.23;;;23.20;99.90;;;;;;4952198;28;20032;-84
2023/09/16 09:51:53;;;;;;;1.88;0.93;;;23.30;99.90;;;;;;4941616;28;20305;-83
2023/09/16 09:54:19;;;;;;;1.83;0.70;;;23.60;99.90;;;;;;4925373;28;20024;-83
2023/09/16 09:56:48;;;;;;;2.55;0.98;;;23.50;99.90;;;;;;4946053;28;20057;-91
2023/09/16 09:59:19;;;;;;;1.35;0.70;;;23.60;99.90;;;;;;4943172;28;20391;-86
2023/09/16 10:01:45;;;;;;;2.08;0.90;;;23.70;99.90;;;;;;4944873;28;20026;-90
2023/09/16 10:04:11;;;;;;;2.15;0.90;;;23.70;99.90;;;;;;4948595;28;20042;-85
2023/09/16 10:06:37;;;;;;;1.90;0.88;;;23.60;99.90;;;;;;4948894;28;20526;-84
2023/09/16 10:09:04;;;;;;;1.60;0.88;;;23.80;99.90;;;;;;4957237;28;20031;-83
2023/09/16 10:11:32;;;;;;;4.35;1.42;;;23.80;99.90;;;;;;4960675;28;20130;-85
2023/09/16 10:13:59;;;;;;;2.00;0.90;;;24.00;99.90;;;;;;4961929;28;20546;-85
2023/09/16 10:16:25;;;;;;;1.70;1.08;;;24.10;99.90;;;;;;4955426;28;20491;-84
2023/09/16 10:18:52;;;;;;;2.65;1.52;;;24.20;99.90;;;;;;4961223;28;20079;-86
2023/09/16 10:21:18;;;;;;;2.13;1.20;;;24.00;99.90;;;;;;4955394;28;20031;-88
2023/09/16 10:23:46;;;;;;;2.53;1.10;;;24.20;99.90;;;;;;4946993;28;20093;-85
2023/09/16 10:26:11;;;;;;;2.92;1.45;;;24.20;99.90;;;;;;4955595;28;20034;-83
2023/09/16 10:28:46;;;;;;;2.92;1.90;;;24.10;99.90;;;;;;4962279;28;20027;-87
2023/09/16 10:31:12;;;;;;;5.32;2.53;;;23.90;99.90;;;;;;4936468;28;20435;-85
2023/09/16 10:33:40;;;;;;;4.45;1.80;;;23.90;99.90;;;;;;4956857;28;20087;-85
2023/09/16 10:36:07;;;;;;;2.30;1.40;;;24.10;99.90;;;;;;4959052;28;20053;-89
2023/09/16 10:38:36;;;;;;;3.58;1.40;;;24.20;99.90;;;;;;4943852;28;20037;-87
2023/09/16 10:41:05;;;;;;;2.65;1.50;;;24.30;99.90;;;;;;4959380;28;20031;-88
2023/09/16 10:43:31;;;;;;;1.92;1.42;;;24.40;99.90;;;;;;4946386;28;20503;-85
2023/09/16 10:45:57;;;;;;;2.88;1.13;;;24.40;99.90;;;;;;4955738;28;20145;-88
2023/09/16 10:48:23;;;;;;;3.83;2.28;;;24.70;99.90;;;;;;4968629;28;20019;-90
2023/09/16 10:50:55;;;;;;;3.58;1.58;;;24.40;99.90;;;;;;4967051;28;20030;-88
2023/09/16 10:53:29;;;;;;;1.40;0.90;;;24.70;99.90;;;;;;4966195;28;20160;-87
2023/09/16 10:56:24;;;;;;;2.25;1.27;;;25.10;99.90;;;;;;4949843;28;20041;-89
2023/09/16 10:58:53;;;;;;;4.47;1.90;;;24.60;99.90;;;;;;4964816;28;20123;-87
2023/09/16 11:01:28;;;;;;;2.70;1.77;;;24.50;99.90;;;;;;4963808;28;20031;-89
2023/09/16 11:03:59;;;;;;;3.50;1.98;;;24.70;99.90;;;;;;4947559;28;20042;-84
2023/09/16 11:06:24;;;;;;;3.83;2.08;;;24.70;99.90;;;;;;4947624;28;20100;-84
2023/09/16 11:08:50;;;;;;;3.85;1.92;;;24.30;99.90;;;;;;4950941;28;20479;-91
2023/09/16 11:11:16;;;;;;;2.88;1.25;;;24.60;99.90;;;;;;4948224;28;20376;-85
2023/09/16 11:13:43;;;;;;;2.38;1.35;;;24.80;99.90;;;;;;4948640;28;20042;-89
2023/09/16 11:16:11;;;;;;;2.00;1.33;;;24.80;99.90;;;;;;4949250;28;20043;-85
2023/09/16 11:18:42;;;;;;;2.88;1.35;;;25.00;99.90;;;;;;4963994;28;20081;-90
2023/09/16 11:21:08;;;;;;;2.00;0.90;;;25.00;99.90;;;;;;4942389;28;20074;-86
2023/09/16 11:23:36;;;;;;;2.42;1.35;;;24.90;99.90;;;;;;4949137;28;20375;-86
2023/09/16 11:26:03;;;;;;;3.17;0.80;;;25.00;99.90;;;;;;4950759;28;20039;-87
2023/09/16 11:28:29;;;;;;;1.70;0.70;;;25.00;99.90;;;;;;4945381;28;20042;-85
2023/09/16 11:31:07;;;;;;;2.15;0.60;;;25.60;99.90;;;;;;4959943;28;20043;-86
2023/09/16 11:33:37;;;;;;;1.93;0.70;;;25.70;99.90;;;;;;4947078;28;20028;-84
2023/09/16 11:36:06;;;;;;;1.60;0.77;;;25.80;99.90;;;;;;4950455;28;20317;-88
2023/09/16 11:38:32;;;;;;;;;;;25.70;99.90;;;;;;4949707;28;20065;-85
2023/09/16 11:41:09;;;;;;;2.40;0.90;;;25.40;99.90;;;;;;5045038;28;19945;-85
2023/09/16 11:43:38;;;;;;;2.55;0.80;;;25.50;99.90;;;;;;4935264;28;20096;-89
2023/09/16 11:46:08;;;;;;;3.50;0.90;;;25.50;99.90;;;;;;4967937;28;20406;-85
2023/09/16 11:48:55;;;;;;;1.42;0.60;;;25.80;99.90;;;;;;4947632;28;20123;-86
2023/09/16 11:51:22;;;;;;;1.35;0.68;;;25.70;99.90;;;;;;4949402;28;20035;-86
2023/09/16 11:53:50;;;;;;;1.98;1.00;;;25.70;99.90;;;;;;4966755;28;20050;-86
2023/09/16 11:56:17;;;;;;;1.25;0.60;;;25.50;99.90;;;;;;4934342;28;20390;-86
2023/09/16 11:58:43;;;;;;;1.42;0.77;;;25.70;99.90;;;;;;4962591;28;20076;-87
2023/09/16 12:01:12;;;;;;;1.50;0.70;;;25.70;99.90;;;;;;4961452;28;20463;-85
2023/09/16 12:03:39;;;;;;;1.60;0.80;;;26.00;99.90;;;;;;4951934;28;20060;-85
2023/09/16 12:06:05;;;;;;;1.88;0.98;;;25.70;99.90;;;;;;4948247;28;20262;-85
2023/09/16 12:08:31;;;;;;;1.40;0.80;;;25.60;99.90;;;;;;4947969;28;20217;-85
2023/09/16 12:10:57;;;;;;;2.95;1.17;;;25.70;99.90;;;;;;4963708;28;20077;-85
2023/09/16 12:13:30;;;;;;;2.72;0.93;;;25.40;99.90;;;;;;4962328;28;20055;-85
2023/09/16 12:15:57;;;;;;;2.38;1.00;;;25.30;99.90;;;;;;4958651;28;20046;-85
2023/09/16 12:18:23;;;;;;;2.75;1.17;;;25.40;99.90;;;;;;4957139;28;20015;-86
2023/09/16 12:20:48;;;;;;;2.20;0.80;;;25.10;99.90;;;;;;4964103;28;20498;-86
2023/09/16 12:23:17;;;;;;;1.92;0.70;;;25.30;99.90;;;;;;4962968;28;20026;-85
2023/09/16 12:25:44;;;;;;;1.98;0.80;;;25.40;99.90;;;;;;4930565;28;20038;-86
2023/09/16 12:28:11;;;;;;;2.80;1.00;;;25.40;99.90;;;;;;4964601;28;20115;-86
2023/09/16 12:30:43;;;;;;;1.40;0.80;;;25.30;99.90;;;;;;4949418;28;20065;-84
2023/09/16 12:33:10;;;;;;;1.58;0.82;;;25.40;99.90;;;;;;4964418;28;20030;-87
2023/09/16 12:35:39;;;;;;;1.50;0.80;;;25.40;99.90;;;;;;4964036;28;20038;-87
2023/09/16 12:38:05;;;;;;;;;;;25.20;99.90;;;;;;4962673;28;20076;-85
2023/09/16 12:40:32;;;;;;;1.83;0.70;;;25.20;99.90;;;;;;4946360;28;19980;-84
2023/09/16 12:42:59;;;;;;;3.08;0.80;;;25.40;99.90;;;;;;4947594;28;20406;-85
2023/09/16 12:45:26;;;;;;;2.25;1.02;;;25.40;99.90;;;;;;4959959;28;20046;-86
2023/09/16 12:47:53;;;;;;;2.47;1.05;;;25.50;99.90;;;;;;4950419;28;20031;-85